sensor_id;sensor_type;location;lat;lon;timestamp;pressure;altitude;pressure_sealevel;temperature;humidity
51603;BME280;37954;51.980;5.850;2023-09-19T00:01:02;100360.91;;;16.25;83.72
51603;BME280;37954;51.980;5.850;2023-09-19T00:05:14;100358.16;;;16.15;83.70
51603;BME280;37954;51.980;5.850;2023-09-19T00:09:27;100373.31;;;16.11;83.93
51603;BME280;37954;51.980;5.850;2023-09-19T00:13:39;100393.09;;;16.11;84.11
51603;BME280;37954;51.980;5.850;2023-09-19T00:17:51;100390.13;;;16.13;84.48
51603;BME280;37954;51.980;5.850;2023-09-19T00:22:06;100368.44;;;15.97;84.83
51603;BME280;37954;51.980;5.850;2023-09-19T00:26:18;100403.16;;;16.16;85.03
51603;BME280;37954;51.980;5.850;2023-09-19T00:30:34;100413.75;;;16.27;85.34
51603;BME280;37954;51.980;5.850;2023-09-19T00:34:46;100408.31;;;16.22;85.37
51603;BME280;37954;51.980;5.850;2023-09-19T00:38:58;100402.88;;;16.17;85.62
51603;BME280;37954;51.980;5.850;2023-09-19T00:43:11;100382.53;;;16.05;85.70
51603;BME280;37954;51.980;5.850;2023-09-19T00:47:22;100411.56;;;16.19;86.71
51603;BME280;37954;51.980;5.850;2023-09-19T00:51:35;100415.88;;;16.15;86.67
51603;BME280;37954;51.980;5.850;2023-09-19T00:55:48;100432.16;;;16.20;87.07
51603;BME280;37954;51.980;5.850;2023-09-19T01:00:02;100417.50;;;16.06;86.90
51603;BME280;37954;51.980;5.850;2023-09-19T01:04:18;100421.03;;;16.17;87.24
51603;BME280;37954;51.980;5.850;2023-09-19T01:08:30;100428.06;;;16.13;86.97
51603;BME280;37954;51.980;5.850;2023-09-19T01:13:06;100441.88;;;16.11;87.20
51603;BME280;37954;51.980;5.850;2023-09-19T01:17:30;100434.78;;;15.95;87.71
51603;BME280;37954;51.980;5.850;2023-09-19T01:22:48;100447.81;;;15.93;87.76
51603;BME280;37954;51.980;5.850;2023-09-19T01:30:59;100451.25;;;15.78;88.18
51603;BME280;37954;51.980;5.850;2023-09-19T01:35:14;100437.13;;;15.66;88.81
51603;BME280;37954;51.980;5.850;2023-09-19T01:39:26;100445.56;;;15.70;88.98
51603;BME280;37954;51.980;5.850;2023-09-19T01:43:42;100461.00;;;15.74;89.28
51603;BME280;37954;51.980;5.850;2023-09-19T01:47:55;100469.72;;;15.86;89.32
51603;BME280;37954;51.980;5.850;2023-09-19T01:52:14;100458.88;;;15.86;88.86
51603;BME280;37954;51.980;5.850;2023-09-19T01:56:42;100458.09;;;15.91;88.30
51603;BME280;37954;51.980;5.850;2023-09-19T02:00:54;100471.94;;;15.99;87.77
51603;BME280;37954;51.980;5.850;2023-09-19T02:05:07;100448.06;;;15.86;86.78
51603;BME280;37954;51.980;5.850;2023-09-19T02:09:19;100457.03;;;15.92;86.40
51603;BME280;37954;51.980;5.850;2023-09-19T02:13:31;100473.47;;;15.80;85.70
51603;BME280;37954;51.980;5.850;2023-09-19T02:17:43;100468.50;;;15.62;85.22
51603;BME280;37954;51.980;5.850;2023-09-19T02:21:55;100476.31;;;15.53;85.29
51603;BME280;37954;51.980;5.850;2023-09-19T02:26:07;100462.44;;;15.40;85.16
51603;BME280;37954;51.980;5.850;2023-09-19T02:30:19;100467.47;;;15.26;85.19
51603;BME280;37954;51.980;5.850;2023-09-19T02:34:34;100457.91;;;15.13;85.12
51603;BME280;37954;51.980;5.850;2023-09-19T02:38:48;100455.97;;;15.04;84.92
51603;BME280;37954;51.980;5.850;2023-09-19T02:42:59;100476.47;;;15.00;84.87
51603;BME280;37954;51.980;5.850;2023-09-19T02:47:11;100470.72;;;14.91;84.81
51603;BME280;37954;51.980;5.850;2023-09-19T02:51:23;100466.06;;;14.81;84.69
51603;BME280;37954;51.980;5.850;2023-09-19T02:55:35;100487.13;;;14.79;84.62
51603;BME280;37954;51.980;5.850;2023-09-19T02:59:47;100470.56;;;14.71;84.78
51603;BME280;37954;51.980;5.850;2023-09-19T03:03:59;100468.63;;;14.66;84.64
51603;BME280;37954;51.980;5.850;2023-09-19T03:08:11;100492.34;;;14.59;84.42
51603;BME280;37954;51.980;5.850;2023-09-19T03:12:23;100497.50;;;14.60;84.24
51603;BME280;37954;51.980;5.850;2023-09-19T03:16:35;100482.50;;;14.48;84.25
51603;BME280;37954;51.980;5.850;2023-09-19T03:20:55;100487.59;;;14.44;84.41
51603;BME280;37954;51.980;5.850;2023-09-19T03:25:08;100487.78;;;14.38;84.28
51603;BME280;37954;51.980;5.850;2023-09-19T03:29:22;100464.38;;;14.21;84.18
51603;BME280;37954;51.980;5.850;2023-09-19T03:33:34;100472.78;;;14.25;84.15
51603;BME280;37954;51.980;5.850;2023-09-19T03:37:47;100459.69;;;14.12;83.90
51603;BME280;37954;51.980;5.850;2023-09-19T03:41:59;100459.00;;;14.00;84.00
51603;BME280;37954;51.980;5.850;2023-09-19T03:46:11;100495.94;;;14.16;83.97
51603;BME280;37954;51.980;5.850;2023-09-19T03:50:26;100485.31;;;14.09;83.83
51603;BME280;37954;51.980;5.850;2023-09-19T03:54:38;100479.59;;;14.06;83.76
51603;BME280;37954;51.980;5.850;2023-09-19T03:58:53;100468.50;;;14.02;83.34
51603;BME280;37954;51.980;5.850;2023-09-19T04:03:05;100472.25;;;14.01;83.13
51603;BME280;37954;51.980;5.850;2023-09-19T04:07:18;100485.00;;;14.06;83.06
51603;BME280;37954;51.980;5.850;2023-09-19T04:11:34;100478.72;;;14.00;82.67
51603;BME280;37954;51.980;5.850;2023-09-19T04:15:46;100471.63;;;13.94;82.78
51603;BME280;37954;51.980;5.850;2023-09-19T04:19:58;100505.66;;;13.95;82.60
51603;BME280;37954;51.980;5.850;2023-09-19T04:24:10;100503.97;;;13.89;82.45
51603;BME280;37954;51.980;5.850;2023-09-19T04:28:22;100507.09;;;13.81;82.26
51603;BME280;37954;51.980;5.850;2023-09-19T04:32:33;100532.34;;;13.91;82.54
51603;BME280;37954;51.980;5.850;2023-09-19T04:36:47;100533.28;;;13.80;82.49
51603;BME280;37954;51.980;5.850;2023-09-19T04:40:59;100552.81;;;13.87;82.29
51603;BME280;37954;51.980;5.850;2023-09-19T04:45:11;100547.72;;;13.91;82.19
51603;BME280;37954;51.980;5.850;2023-09-19T04:49:23;100544.34;;;13.79;82.18
51603;BME280;37954;51.980;5.850;2023-09-19T04:53:34;100555.38;;;13.77;82.01
51603;BME280;37954;51.980;5.850;2023-09-19T04:57:47;100564.38;;;13.83;82.51
51603;BME280;37954;51.980;5.850;2023-09-19T05:01:59;100571.91;;;13.81;82.18
51603;BME280;37954;51.980;5.850;2023-09-19T05:19:13;100553.06;;;13.86;82.03
51603;BME280;37954;51.980;5.850;2023-09-19T05:23:25;100560.34;;;13.85;82.10
51603;BME280;37954;51.980;5.850;2023-09-19T05:27:37;100565.75;;;13.85;82.21
51603;BME280;37954;51.980;5.850;2023-09-19T05:31:49;100550.09;;;13.87;82.17
51603;BME280;37954;51.980;5.850;2023-09-19T05:36:01;100558.38;;;13.98;82.35
51603;BME280;37954;51.980;5.850;2023-09-19T05:40:13;100563.31;;;14.06;82.31
51603;BME280;37954;51.980;5.850;2023-09-19T05:44:26;100564.22;;;14.11;82.47
51603;BME280;37954;51.980;5.850;2023-09-19T05:48:37;100562.19;;;14.23;82.10
51603;BME280;37954;51.980;5.850;2023-09-19T05:52:53;100577.47;;;14.35;82.20
51603;BME280;37954;51.980;5.850;2023-09-19T05:57:05;100559.94;;;14.37;81.97
51603;BME280;37954;51.980;5.850;2023-09-19T06:01:17;100555.31;;;14.38;81.98
51603;BME280;37954;51.980;5.850;2023-09-19T06:05:29;100573.84;;;14.46;81.87
51603;BME280;37954;51.980;5.850;2023-09-19T06:09:44;100579.34;;;14.56;81.92
51603;BME280;37954;51.980;5.850;2023-09-19T06:13:56;100581.06;;;14.62;81.87
51603;BME280;37954;51.980;5.850;2023-09-19T06:18:11;100576.06;;;14.76;81.92
51603;BME280;37954;51.980;5.850;2023-09-19T06:22:26;100578.09;;;14.90;81.68
51603;BME280;37954;51.980;5.850;2023-09-19T06:26:38;100581.50;;;15.08;81.51
51603;BME280;37954;51.980;5.850;2023-09-19T06:30:50;100586.53;;;15.26;81.07
51603;BME280;37954;51.980;5.850;2023-09-19T06:35:02;100586.97;;;15.45;80.54
51603;BME280;37954;51.980;5.850;2023-09-19T06:39:19;100598.53;;;15.67;80.19
51603;BME280;37954;51.980;5.850;2023-09-19T06:43:34;100611.97;;;15.94;79.53
51603;BME280;37954;51.980;5.850;2023-09-19T06:47:50;100603.13;;;16.14;79.06
51603;BME280;37954;51.980;5.850;2023-09-19T06:52:03;100602.91;;;16.20;78.61
51603;BME280;37954;51.980;5.850;2023-09-19T06:56:15;100592.09;;;16.30;78.16
51603;BME280;37954;51.980;5.850;2023-09-19T07:00:27;100596.81;;;16.50;77.98
51603;BME280;37954;51.980;5.850;2023-09-19T07:04:40;100591.72;;;16.64;77.44
51603;BME280;37954;51.980;5.850;2023-09-19T07:08:52;100603.69;;;16.73;76.86
51603;BME280;37954;51.980;5.850;2023-09-19T07:13:05;100608.88;;;16.85;76.74
51603;BME280;37954;51.980;5.850;2023-09-19T07:17:28;100604.28;;;16.95;76.17
51603;BME280;37954;51.980;5.850;2023-09-19T07:21:41;100603.19;;;17.01;76.12
51603;BME280;37954;51.980;5.850;2023-09-19T07:25:57;100608.09;;;17.10;75.73
51603;BME280;37954;51.980;5.850;2023-09-19T07:30:10;100614.06;;;17.32;75.54
51603;BME280;37954;51.980;5.850;2023-09-19T07:34:23;100605.41;;;17.45;75.19
51603;BME280;37954;51.980;5.850;2023-09-19T07:38:35;100603.00;;;17.64;74.26
51603;BME280;37954;51.980;5.850;2023-09-19T07:42:47;100617.91;;;17.82;73.73
51603;BME280;37954;51.980;5.850;2023-09-19T07:46:59;100620.03;;;18.05;73.13
51603;BME280;37954;51.980;5.850;2023-09-19T07:51:12;100623.53;;;18.16;72.63
51603;BME280;37954;51.980;5.850;2023-09-19T07:55:27;100620.78;;;18.31;71.96
51603;BME280;37954;51.980;5.850;2023-09-19T07:59:40;100618.47;;;18.68;71.57
51603;BME280;37954;51.980;5.850;2023-09-19T08:03:53;100628.66;;;19.36;70.20
51603;BME280;37954;51.980;5.850;2023-09-19T08:08:05;100623.84;;;19.91;66.96
51603;BME280;37954;51.980;5.850;2023-09-19T08:12:18;100630.97;;;20.39;65.77
51603;BME280;37954;51.980;5.850;2023-09-19T08:16:32;100627.56;;;20.90;64.35
51603;BME280;37954;51.980;5.850;2023-09-19T08:20:49;100645.50;;;21.52;63.01
51603;BME280;37954;51.980;5.850;2023-09-19T08:25:02;100641.31;;;22.06;61.40
51603;BME280;37954;51.980;5.850;2023-09-19T08:29:18;100645.69;;;22.48;59.44
51603;BME280;37954;51.980;5.850;2023-09-19T08:33:31;100639.88;;;22.64;57.70
51603;BME280;37954;51.980;5.850;2023-09-19T08:37:43;100630.31;;;22.75;57.36
51603;BME280;37954;51.980;5.850;2023-09-19T08:42:00;100610.50;;;23.05;57.04
51603;BME280;37954;51.980;5.850;2023-09-19T08:46:15;100626.97;;;23.50;55.67
51603;BME280;37954;51.980;5.850;2023-09-19T08:50:28;100623.06;;;23.65;55.15
51603;BME280;37954;51.980;5.850;2023-09-19T08:54:41;100628.66;;;23.82;54.43
51603;BME280;37954;51.980;5.850;2023-09-19T08:59:00;100634.72;;;23.70;53.77
51603;BME280;37954;51.980;5.850;2023-09-19T09:03:16;100628.22;;;23.66;53.36
51603;BME280;37954;51.980;5.850;2023-09-19T09:07:31;100629.56;;;23.77;52.94
51603;BME280;37954;51.980;5.850;2023-09-19T09:11:48;100625.09;;;23.81;52.57
51603;BME280;37954;51.980;5.850;2023-09-19T09:16:00;100624.78;;;23.83;52.76
51603;BME280;37954;51.980;5.850;2023-09-19T09:20:11;100622.13;;;24.00;51.58
51603;BME280;37954;51.980;5.850;2023-09-19T09:24:29;100629.13;;;24.63;50.20
51603;BME280;37954;51.980;5.850;2023-09-19T09:28:45;100620.34;;;24.35;49.57
51603;BME280;37954;51.980;5.850;2023-09-19T09:33:13;100621.41;;;23.86;49.85
51603;BME280;37954;51.980;5.850;2023-09-19T09:37:27;100614.38;;;23.49;50.85
51603;BME280;37954;51.980;5.850;2023-09-19T09:41:42;100613.81;;;23.60;51.44
51603;BME280;37954;51.980;5.850;2023-09-19T09:46:17;100612.66;;;24.54;50.61
51603;BME280;37954;51.980;5.850;2023-09-19T09:50:36;100618.72;;;25.25;48.84
51603;BME280;37954;51.980;5.850;2023-09-19T09:55:03;100620.81;;;25.37;47.16
51603;BME280;37954;51.980;5.850;2023-09-19T09:59:17;100626.47;;;25.41;47.36
51603;BME280;37954;51.980;5.850;2023-09-19T10:03:40;100625.31;;;25.59;45.58
51603;BME280;37954;51.980;5.850;2023-09-19T10:07:55;100623.25;;;26.11;45.62
51603;BME280;37954;51.980;5.850;2023-09-19T10:12:14;100605.31;;;26.34;45.06
51603;BME280;37954;51.980;5.850;2023-09-19T10:16:30;100598.25;;;26.54;44.41
51603;BME280;37954;51.980;5.850;2023-09-19T10:20:47;100608.16;;;26.76;44.39
51603;BME280;37954;51.980;5.850;2023-09-19T10:25:00;100582.41;;;26.72;43.38
51603;BME280;37954;51.980;5.850;2023-09-19T10:29:15;100593.13;;;26.94;43.17
51603;BME280;37954;51.980;5.850;2023-09-19T10:33:35;100603.22;;;26.61;42.84
51603;BME280;37954;51.980;5.850;2023-09-19T10:37:47;100595.88;;;26.44;42.89
51603;BME280;37954;51.980;5.850;2023-09-19T10:42:02;100600.16;;;26.24;43.48
51603;BME280;37954;51.980;5.850;2023-09-19T10:46:17;100603.16;;;26.11;43.48
51603;BME280;37954;51.980;5.850;2023-09-19T10:54:55;100589.88;;;25.57;44.14
51603;BME280;37954;51.980;5.850;2023-09-19T10:59:13;100589.56;;;25.33;45.49
51603;BME280;37954;51.980;5.850;2023-09-19T11:03:26;100577.50;;;25.08;45.99
51603;BME280;37954;51.980;5.850;2023-09-19T11:07:57;100553.50;;;24.48;46.41
51603;BME280;37954;51.980;5.850;2023-09-19T11:12:57;100556.94;;;24.14;47.35
51603;BME280;37954;51.980;5.850;2023-09-19T11:25:41;100547.91;;;24.14;48.17
51603;BME280;37954;51.980;5.850;2023-09-19T11:30:25;100535.47;;;23.68;48.70
51603;BME280;37954;51.980;5.850;2023-09-19T11:38:58;100530.41;;;23.08;49.72
51603;BME280;37954;51.980;5.850;2023-09-19T11:43:28;100520.88;;;23.06;50.40
51603;BME280;37954;51.980;5.850;2023-09-19T11:47:45;100527.66;;;23.53;49.98
51603;BME280;37954;51.980;5.850;2023-09-19T11:51:58;100526.63;;;23.71;49.54
51603;BME280;37954;51.980;5.850;2023-09-19T11:56:19;100517.97;;;23.86;49.12
51603;BME280;37954;51.980;5.850;2023-09-19T12:00:33;100520.22;;;23.93;48.82
51603;BME280;37954;51.980;5.850;2023-09-19T12:04:46;100515.53;;;23.93;48.88
51603;BME280;37954;51.980;5.850;2023-09-19T12:09:00;100520.69;;;24.35;48.79
51603;BME280;37954;51.980;5.850;2023-09-19T12:13:16;100507.63;;;24.66;48.25
51603;BME280;37954;51.980;5.850;2023-09-19T12:17:38;100507.78;;;24.52;47.13
51603;BME280;37954;51.980;5.850;2023-09-19T12:22:01;100508.44;;;24.58;47.35
51603;BME280;37954;51.980;5.850;2023-09-19T12:26:17;100511.66;;;24.60;46.77
51603;BME280;37954;51.980;5.850;2023-09-19T12:30:28;100513.28;;;24.78;46.82
51603;BME280;37954;51.980;5.850;2023-09-19T12:34:50;100521.06;;;24.76;47.01
51603;BME280;37954;51.980;5.850;2023-09-19T12:39:04;100509.97;;;24.16;46.52
51603;BME280;37954;51.980;5.850;2023-09-19T12:43:20;100510.91;;;23.63;46.84
51603;BME280;37954;51.980;5.850;2023-09-19T12:47:33;100509.91;;;23.28;47.88
51603;BME280;37954;51.980;5.850;2023-09-19T12:51:46;100516.81;;;23.03;48.89
51603;BME280;37954;51.980;5.850;2023-09-19T12:55:59;100516.63;;;22.77;49.78
51603;BME280;37954;51.980;5.850;2023-09-19T13:00:11;100508.16;;;22.51;50.10
51603;BME280;37954;51.980;5.850;2023-09-19T13:04:23;100493.03;;;22.32;50.67
51603;BME280;37954;51.980;5.850;2023-09-19T13:08:40;100505.91;;;22.31;51.20
51603;BME280;37954;51.980;5.850;2023-09-19T13:12:55;100497.38;;;22.33;51.92
51603;BME280;37954;51.980;5.850;2023-09-19T13:17:42;100497.34;;;22.46;51.92
51603;BME280;37954;51.980;5.850;2023-09-19T13:21:54;100501.19;;;22.45;52.16
51603;BME280;37954;51.980;5.850;2023-09-19T13:26:10;100517.81;;;22.35;52.44
51603;BME280;37954;51.980;5.850;2023-09-19T13:30:31;100504.47;;;22.20;52.50
51603;BME280;37954;51.980;5.850;2023-09-19T13:34:45;100509.88;;;22.11;52.97
51603;BME280;37954;51.980;5.850;2023-09-19T13:38:57;100491.63;;;21.79;53.41
51603;BME280;37954;51.980;5.850;2023-09-19T13:43:09;100503.88;;;21.82;53.88
51603;BME280;37954;51.980;5.850;2023-09-19T13:47:23;100505.59;;;21.78;54.21
51603;BME280;37954;51.980;5.850;2023-09-19T13:51:36;100509.84;;;21.70;54.25
51603;BME280;37954;51.980;5.850;2023-09-19T13:55:48;100493.75;;;21.69;54.37
51603;BME280;37954;51.980;5.850;2023-09-19T14:00:02;100491.63;;;21.79;54.11
51603;BME280;37954;51.980;5.850;2023-09-19T14:04:22;100494.97;;;21.90;54.32
51603;BME280;37954;51.980;5.850;2023-09-19T14:08:34;100493.97;;;22.13;54.28
51603;BME280;37954;51.980;5.850;2023-09-19T14:12:46;100486.81;;;22.40;53.66
51603;BME280;37954;51.980;5.850;2023-09-19T14:16:57;100483.34;;;22.48;53.04
51603;BME280;37954;51.980;5.850;2023-09-19T14:21:12;100486.09;;;22.48;53.73
51603;BME280;37954;51.980;5.850;2023-09-19T14:25:24;100499.53;;;22.58;53.38
51603;BME280;37954;51.980;5.850;2023-09-19T14:29:44;100499.63;;;22.53;53.02
51603;BME280;37954;51.980;5.850;2023-09-19T14:33:56;100490.69;;;22.25;53.03
51603;BME280;37954;51.980;5.850;2023-09-19T14:38:08;100494.69;;;22.05;53.57
51603;BME280;37954;51.980;5.850;2023-09-19T14:42:20;100489.19;;;21.92;53.91
51603;BME280;37954;51.980;5.850;2023-09-19T14:46:32;100472.47;;;21.66;54.36
51603;BME280;37954;51.980;5.850;2023-09-19T14:50:44;100467.13;;;21.74;54.76
51603;BME280;37954;51.980;5.850;2023-09-19T14:54:55;100473.41;;;21.75;54.71
51603;BME280;37954;51.980;5.850;2023-09-19T14:59:07;100479.06;;;21.78;54.91
51603;BME280;37954;51.980;5.850;2023-09-19T15:03:22;100476.66;;;21.63;55.15
51603;BME280;37954;51.980;5.850;2023-09-19T15:07:35;100477.25;;;21.60;55.33
51603;BME280;37954;51.980;5.850;2023-09-19T15:11:48;100477.72;;;21.48;55.64
51603;BME280;37954;51.980;5.850;2023-09-19T15:16:04;100485.63;;;21.36;55.95
51603;BME280;37954;51.980;5.850;2023-09-19T15:20:16;100487.13;;;21.29;56.54
51603;BME280;37954;51.980;5.850;2023-09-19T15:24:29;100485.59;;;21.23;56.92
51603;BME280;37954;51.980;5.850;2023-09-19T15:28:41;100476.13;;;21.15;57.03
51603;BME280;37954;51.980;5.850;2023-09-19T15:32:53;100486.88;;;21.11;57.02
51603;BME280;37954;51.980;5.850;2023-09-19T15:37:05;100491.81;;;21.09;57.47
51603;BME280;37954;51.980;5.850;2023-09-19T15:41:17;100500.66;;;21.01;57.90
51603;BME280;37954;51.980;5.850;2023-09-19T15:45:29;100488.41;;;20.99;57.98
51603;BME280;37954;51.980;5.850;2023-09-19T15:49:40;100487.19;;;20.91;58.38
51603;BME280;37954;51.980;5.850;2023-09-19T15:53:54;100505.78;;;20.89;58.85
51603;BME280;37954;51.980;5.850;2023-09-19T15:58:07;100504.34;;;20.78;59.09
51603;BME280;37954;51.980;5.850;2023-09-19T16:02:19;100507.06;;;20.78;59.05
51603;BME280;37954;51.980;5.850;2023-09-19T16:06:31;100502.19;;;20.75;59.35
51603;BME280;37954;51.980;5.850;2023-09-19T16:10:43;100493.78;;;20.71;59.52
51603;BME280;37954;51.980;5.850;2023-09-19T16:14:56;100495.13;;;20.74;59.95
51603;BME280;37954;51.980;5.850;2023-09-19T16:19:07;100493.44;;;20.78;59.84
51603;BME280;37954;51.980;5.850;2023-09-19T16:23:22;100496.53;;;20.71;59.89
51603;BME280;37954;51.980;5.850;2023-09-19T16:27:34;100499.03;;;20.68;60.10
51603;BME280;37954;51.980;5.850;2023-09-19T16:31:47;100502.22;;;20.56;60.74
51603;BME280;37954;51.980;5.850;2023-09-19T16:35:59;100506.34;;;20.54;60.68
51603;BME280;37954;51.980;5.850;2023-09-19T16:40:11;100503.97;;;20.47;61.26
51603;BME280;37954;51.980;5.850;2023-09-19T16:44:24;100506.16;;;20.45;61.46
51603;BME280;37954;51.980;5.850;2023-09-19T16:48:35;100497.84;;;20.36;61.42
51603;BME280;37954;51.980;5.850;2023-09-19T16:53:07;100486.66;;;20.38;61.40
51603;BME280;37954;51.980;5.850;2023-09-19T16:57:22;100500.81;;;20.40;61.41
51603;BME280;37954;51.980;5.850;2023-09-19T17:01:33;100485.88;;;20.32;61.67
51603;BME280;37954;51.980;5.850;2023-09-19T17:05:47;100484.00;;;20.28;61.63
51603;BME280;37954;51.980;5.850;2023-09-19T17:09:59;100497.59;;;20.33;61.90
51603;BME280;37954;51.980;5.850;2023-09-19T17:14:11;100502.53;;;20.31;62.00
51603;BME280;37954;51.980;5.850;2023-09-19T17:18:23;100484.63;;;20.25;62.18
51603;BME280;37954;51.980;5.850;2023-09-19T17:22:37;100508.84;;;20.26;62.41
51603;BME280;37954;51.980;5.850;2023-09-19T17:26:49;100502.97;;;20.19;63.25
51603;BME280;37954;51.980;5.850;2023-09-19T17:31:02;100507.66;;;20.13;63.78
51603;BME280;37954;51.980;5.850;2023-09-19T17:35:15;100491.63;;;19.88;64.77
51603;BME280;37954;51.980;5.850;2023-09-19T17:39:29;100496.03;;;19.84;65.39
51603;BME280;37954;51.980;5.850;2023-09-19T17:43:46;100493.94;;;19.76;65.83
51603;BME280;37954;51.980;5.850;2023-09-19T17:47:59;100493.22;;;19.70;66.65
51603;BME280;37954;51.980;5.850;2023-09-19T17:52:11;100499.22;;;19.67;66.56
51603;BME280;37954;51.980;5.850;2023-09-19T17:56:23;100499.28;;;19.62;67.03
51603;BME280;37954;51.980;5.850;2023-09-19T18:00:36;100494.25;;;19.45;67.46
51603;BME280;37954;51.980;5.850;2023-09-19T18:04:48;100494.78;;;19.47;68.12
51603;BME280;37954;51.980;5.850;2023-09-19T18:09:01;100514.94;;;19.46;67.96
51603;BME280;37954;51.980;5.850;2023-09-19T18:13:19;100502.78;;;19.39;68.26
51603;BME280;37954;51.980;5.850;2023-09-19T18:17:32;100521.31;;;19.37;68.38
51603;BME280;37954;51.980;5.850;2023-09-19T18:21:43;100517.81;;;19.31;68.56
51603;BME280;37954;51.980;5.850;2023-09-19T18:26:02;100518.66;;;19.27;68.75
51603;BME280;37954;51.980;5.850;2023-09-19T18:30:14;100523.31;;;19.26;69.25
51603;BME280;37954;51.980;5.850;2023-09-19T18:34:26;100533.13;;;19.22;69.52
51603;BME280;37954;51.980;5.850;2023-09-19T18:38:38;100526.94;;;19.17;69.93
51603;BME280;37954;51.980;5.850;2023-09-19T18:42:52;100537.88;;;19.11;70.49
51603;BME280;37954;51.980;5.850;2023-09-19T18:47:04;100540.34;;;19.08;70.66
51603;BME280;37954;51.980;5.850;2023-09-19T18:51:16;100540.69;;;19.01;71.04
51603;BME280;37954;51.980;5.850;2023-09-19T18:55:30;100532.00;;;18.94;72.07
51603;BME280;37954;51.980;5.850;2023-09-19T18:59:43;100527.19;;;18.86;72.49
51603;BME280;37954;51.980;5.850;2023-09-19T19:03:55;100534.47;;;18.91;72.76
51603;BME280;37954;51.980;5.850;2023-09-19T19:08:07;100520.16;;;18.80;72.77
51603;BME280;37954;51.980;5.850;2023-09-19T19:12:19;100538.59;;;18.88;72.95
51603;BME280;37954;51.980;5.850;2023-09-19T19:16:31;100531.22;;;18.89;72.72
51603;BME280;37954;51.980;5.850;2023-09-19T19:20:43;100531.00;;;18.85;72.79
51603;BME280;37954;51.980;5.850;2023-09-19T19:24:55;100525.56;;;18.85;73.19
51603;BME280;37954;51.980;5.850;2023-09-19T19:29:08;100514.97;;;18.84;73.06
51603;BME280;37954;51.980;5.850;2023-09-19T19:33:20;100511.94;;;18.85;72.81
51603;BME280;37954;51.980;5.850;2023-09-19T19:37:33;100519.31;;;18.85;72.94
51603;BME280;37954;51.980;5.850;2023-09-19T19:41:45;100523.06;;;18.89;72.88
51603;BME280;37954;51.980;5.850;2023-09-19T19:45:58;100525.78;;;18.89;72.58
51603;BME280;37954;51.980;5.850;2023-09-19T19:50:10;100523.06;;;18.89;72.64
51603;BME280;37954;51.980;5.850;2023-09-19T19:54:22;100531.53;;;18.87;72.35
51603;BME280;37954;51.980;5.850;2023-09-19T19:58:34;100515.28;;;18.77;72.13
51603;BME280;37954;51.980;5.850;2023-09-19T20:02:50;100542.38;;;18.92;72.07
51603;BME280;37954;51.980;5.850;2023-09-19T20:07:02;100527.69;;;18.88;72.07
51603;BME280;37954;51.980;5.850;2023-09-19T20:11:15;100527.41;;;18.90;72.05
51603;BME280;37954;51.980;5.850;2023-09-19T20:15:27;100536.66;;;18.94;72.13
51603;BME280;37954;51.980;5.850;2023-09-19T20:19:41;100523.03;;;18.94;71.95
51603;BME280;37954;51.980;5.850;2023-09-19T20:23:53;100520.66;;;18.87;72.08
51603;BME280;37954;51.980;5.850;2023-09-19T20:28:06;100519.03;;;18.86;71.80
51603;BME280;37954;51.980;5.850;2023-09-19T20:32:18;100537.72;;;18.98;71.55
51603;BME280;37954;51.980;5.850;2023-09-19T20:36:31;100529.00;;;18.96;71.04
51603;BME280;37954;51.980;5.850;2023-09-19T20:40:43;100537.72;;;18.98;71.31
51603;BME280;37954;51.980;5.850;2023-09-19T20:44:55;100539.91;;;18.96;71.13
51603;BME280;37954;51.980;5.850;2023-09-19T20:49:08;100539.34;;;18.99;71.01
51603;BME280;37954;51.980;5.850;2023-09-19T20:53:20;100527.34;;;19.00;71.01
51603;BME280;37954;51.980;5.850;2023-09-19T20:57:32;100523.31;;;18.92;70.85
51603;BME280;37954;51.980;5.850;2023-09-19T21:01:44;100534.16;;;19.02;70.44
51603;BME280;37954;51.980;5.850;2023-09-19T21:10:16;100551.78;;;19.05;70.54
51603;BME280;37954;51.980;5.850;2023-09-19T21:14:30;100534.69;;;19.04;70.45
51603;BME280;37954;51.980;5.850;2023-09-19T21:18:47;100541.50;;;19.02;70.41
51603;BME280;37954;51.980;5.850;2023-09-19T21:23:00;100520.56;;;18.97;70.05
51603;BME280;37954;51.980;5.850;2023-09-19T21:27:12;100526.25;;;19.01;70.53
51603;BME280;37954;51.980;5.850;2023-09-19T21:31:24;100518.38;;;18.99;70.40
51603;BME280;37954;51.980;5.850;2023-09-19T21:35:43;100521.38;;;18.98;70.66
51603;BME280;37954;51.980;5.850;2023-09-19T21:39:55;100533.91;;;18.99;70.93
51603;BME280;37954;51.980;5.850;2023-09-19T21:44:07;100540.69;;;19.01;70.88
51603;BME280;37954;51.980;5.850;2023-09-19T21:48:19;100543.69;;;19.00;70.93
51603;BME280;37954;51.980;5.850;2023-09-19T21:52:32;100528.16;;;19.00;71.00
51603;BME280;37954;51.980;5.850;2023-09-19T21:56:45;100527.91;;;18.97;71.62
51603;BME280;37954;51.980;5.850;2023-09-19T22:00:59;100525.47;;;18.95;71.61
51603;BME280;37954;51.980;5.850;2023-09-19T22:05:14;100524.94;;;18.93;72.02
51603;BME280;37954;51.980;5.850;2023-09-19T22:09:26;100524.94;;;18.93;72.07
51603;BME280;37954;51.980;5.850;2023-09-19T22:13:40;100525.19;;;18.97;72.40
51603;BME280;37954;51.980;5.850;2023-09-19T22:17:55;100515.69;;;18.94;72.27
51603;BME280;37954;51.980;5.850;2023-09-19T22:22:09;100503.72;;;18.90;72.26
51603;BME280;37954;51.980;5.850;2023-09-19T22:26:23;100508.59;;;18.98;72.23
51603;BME280;37954;51.980;5.850;2023-09-19T22:30:36;100503.13;;;18.98;72.10
51603;BME280;37954;51.980;5.850;2023-09-19T22:34:52;100483.06;;;18.89;72.15
51603;BME280;37954;51.980;5.850;2023-09-19T22:39:04;100495.78;;;18.99;72.09
51603;BME280;37954;51.980;5.850;2023-09-19T22:43:25;100480.00;;;18.96;72.24
51603;BME280;37954;51.980;5.850;2023-09-19T22:47:43;100493.63;;;18.96;72.12